createdAt,value
2022-12-06T00:01:43.774Z,94.18
2022-12-06T00:04:15.668Z,94.49
2022-12-06T00:06:50.849Z,94.65
2022-12-06T00:09:24.968Z,94.40
2022-12-06T00:11:54.143Z,94.64
2022-12-06T00:14:27.171Z,93.94
2022-12-06T00:16:56.736Z,94.29
2022-12-06T00:19:26.252Z,94.10
2022-12-06T00:21:55.599Z,94.10
2022-12-06T00:24:26.308Z,93.98
2022-12-06T00:26:55.097Z,94.45
2022-12-06T00:29:25.584Z,93.92
2022-12-06T00:31:54.461Z,94.45
2022-12-06T00:34:23.271Z,94.18
2022-12-06T00:36:52.088Z,94.27
2022-12-06T00:39:20.964Z,94.46
2022-12-06T00:41:51.641Z,94.63
2022-12-06T00:44:20.740Z,94.37
2022-12-06T00:46:49.501Z,94.05
2022-12-06T00:49:18.424Z,94.44
2022-12-06T00:51:47.232Z,94.62
2022-12-06T00:54:16.982Z,94.63
2022-12-06T00:56:45.874Z,94.83
2022-12-06T00:59:16.864Z,95.26
2022-12-06T01:01:45.717Z,94.94
2022-12-06T01:04:14.544Z,95.24
2022-12-06T01:06:43.475Z,95.24
2022-12-06T01:09:13.596Z,95.06
2022-12-06T01:11:42.587Z,94.83
2022-12-06T01:14:11.413Z,94.78
2022-12-06T01:16:43.146Z,94.57
2022-12-06T01:19:14.392Z,94.80
2022-12-06T01:21:42.983Z,94.52
2022-12-06T01:24:11.644Z,94.47
2022-12-06T01:26:40.325Z,94.37
2022-12-06T01:29:09.048Z,94.57
2022-12-06T01:31:39.256Z,94.69
2022-12-06T01:34:17.731Z,94.32
2022-12-06T01:36:46.611Z,94.52
2022-12-06T01:39:15.244Z,95.22
2022-12-06T01:41:44.153Z,94.30
2022-12-06T01:44:42.280Z,94.07
2022-12-06T01:47:18.793Z,94.35
2022-12-06T01:49:57.490Z,94.78
2022-12-06T01:52:31.833Z,94.25
2022-12-06T01:55:02.179Z,93.76
2022-12-06T01:57:32.078Z,93.49
2022-12-06T02:00:01.260Z,93.21
2022-12-06T02:02:30.165Z,93.10
2022-12-06T02:05:01.400Z,92.97
2022-12-06T02:07:30.966Z,93.01
2022-12-06T02:10:00.048Z,93.71
2022-12-06T02:12:28.847Z,93.53
2022-12-06T02:14:59.012Z,93.87
2022-12-06T02:17:45.124Z,93.72
2022-12-06T02:20:23.978Z,93.85
2022-12-06T02:23:29.127Z,93.91
2022-12-06T02:26:25.549Z,94.23
2022-12-06T02:29:39.511Z,94.35
2022-12-06T02:32:15.456Z,94.38
2022-12-06T02:34:49.767Z,94.34
2022-12-06T02:37:26.914Z,94.46
2022-12-06T02:40:02.907Z,94.42
2022-12-06T02:42:38.232Z,94.70
2022-12-06T02:45:14.627Z,94.79
2022-12-06T02:47:47.849Z,95.10
2022-12-06T02:50:20.668Z,94.61
2022-12-06T02:52:55.350Z,94.42
2022-12-06T02:55:26.387Z,94.81
2022-12-06T02:57:56.793Z,95.03
2022-12-06T03:00:38.780Z,94.68
2022-12-06T03:03:41.548Z,94.50
2022-12-06T03:06:42.743Z,94.77
2022-12-06T03:09:26.850Z,94.94
2022-12-06T03:12:08.147Z,95.15
2022-12-06T03:14:46.840Z,94.52
2022-12-06T03:17:24.852Z,94.75
2022-12-06T03:20:00.967Z,94.82
2022-12-06T03:22:38.223Z,94.84
2022-12-06T03:25:11.749Z,94.92
2022-12-06T03:27:43.256Z,94.80
2022-12-06T03:30:16.268Z,94.90
2022-12-06T03:32:50.588Z,94.59
2022-12-06T03:35:27.340Z,94.90
2022-12-06T03:38:03.288Z,94.78
2022-12-06T03:40:36.613Z,94.74
2022-12-06T03:43:06.675Z,95.09
2022-12-06T03:45:42.648Z,94.68
2022-12-06T03:48:16.609Z,94.77
2022-12-06T03:50:58.304Z,94.95
2022-12-06T03:53:27.627Z,94.79
2022-12-06T03:55:56.294Z,94.30
2022-12-06T03:58:25.047Z,94.29
2022-12-06T04:00:53.708Z,94.69
2022-12-06T04:03:22.529Z,94.70
2022-12-06T04:05:53.108Z,94.91
2022-12-06T04:08:21.773Z,94.07
2022-12-06T04:10:50.431Z,94.43
2022-12-06T04:13:19.897Z,94.35
2022-12-06T04:15:49.304Z,94.45
2022-12-06T04:18:17.946Z,93.31
2022-12-06T04:21:02.958Z,93.24
2022-12-06T04:23:36.446Z,93.57
2022-12-06T04:26:07.307Z,93.12
2022-12-06T04:28:49.193Z,93.26
2022-12-06T04:31:31.247Z,93.04
2022-12-06T04:34:12.925Z,92.84
2022-12-06T04:36:55.113Z,92.69
2022-12-06T04:39:26.079Z,92.79
2022-12-06T04:42:08.709Z,93.08
2022-12-06T04:44:37.610Z,93.81
2022-12-06T04:47:07.327Z,94.17
2022-12-06T04:49:37.502Z,93.97
2022-12-06T04:52:08.187Z,94.05
2022-12-06T04:54:40.008Z,94.71
2022-12-06T04:57:10.350Z,94.71
2022-12-06T04:59:40.583Z,94.74
2022-12-06T05:02:12.971Z,94.03
2022-12-06T05:04:41.671Z,94.94
2022-12-06T05:07:11.086Z,94.21
2022-12-06T05:09:41.667Z,94.33
2022-12-06T05:12:10.763Z,94.36
2022-12-06T05:14:39.395Z,93.93
2022-12-06T05:17:08.155Z,94.04
2022-12-06T05:19:36.716Z,94.43
2022-12-06T05:22:05.335Z,93.93
2022-12-06T05:24:34.204Z,94.04
2022-12-06T05:27:04.742Z,94.42
2022-12-06T05:29:33.596Z,94.08
2022-12-06T05:32:02.344Z,94.70
2022-12-06T05:34:31.053Z,94.49
2022-12-06T05:36:59.725Z,95.04
2022-12-06T05:39:28.769Z,94.66
2022-12-06T05:41:57.523Z,94.44
2022-12-06T05:44:28.359Z,94.32
2022-12-06T05:46:57.115Z,94.33
2022-12-06T05:49:25.672Z,94.42
2022-12-06T05:51:54.706Z,93.76
2022-12-06T05:54:23.515Z,93.55
2022-12-06T05:56:52.384Z,93.03
2022-12-06T05:59:20.962Z,93.06
2022-12-06T06:01:52.059Z,92.88
2022-12-06T06:04:20.742Z,93.20
2022-12-06T06:06:49.401Z,93.12
2022-12-06T06:09:18.316Z,93.52
2022-12-06T06:11:46.954Z,93.78
2022-12-06T06:14:16.292Z,92.98
2022-12-06T06:16:44.981Z,93.22
2022-12-06T06:19:15.628Z,93.20
2022-12-06T06:21:44.291Z,92.99
2022-12-06T06:24:12.975Z,92.53
2022-12-06T06:26:41.675Z,92.81
2022-12-06T06:29:10.323Z,92.81
2022-12-06T06:31:39.035Z,92.73
2022-12-06T06:34:07.766Z,92.92
2022-12-06T06:36:42.519Z,93.14
2022-12-06T06:39:14.251Z,93.13
2022-12-06T06:41:43.044Z,93.11
2022-12-06T06:44:11.657Z,92.97
2022-12-06T06:46:40.695Z,93.33
2022-12-06T06:49:09.357Z,92.76
2022-12-06T06:51:39.891Z,92.47
2022-12-06T06:54:08.470Z,93.09
2022-12-06T06:56:37.047Z,92.26
2022-12-06T06:59:06.191Z,92.55
2022-12-06T07:01:35.332Z,92.87
2022-12-06T07:04:04.226Z,92.32
2022-12-06T07:06:32.888Z,92.56
2022-12-06T07:09:03.516Z,91.51
2022-12-06T07:11:32.191Z,91.87
2022-12-06T07:14:02.040Z,91.59
2022-12-06T07:16:30.792Z,91.07
2022-12-06T07:18:59.488Z,90.90
2022-12-06T07:21:28.294Z,90.60
2022-12-06T07:23:56.998Z,90.74
2022-12-06T07:26:28.298Z,90.54
2022-12-06T07:28:58.008Z,90.62
2022-12-06T07:31:29.339Z,90.52
2022-12-06T07:34:00.411Z,90.29
2022-12-06T07:36:32.605Z,91.16
2022-12-06T07:39:02.078Z,90.96
2022-12-06T07:41:45.964Z,91.16
2022-12-06T07:44:29.787Z,90.59
2022-12-06T07:46:59.617Z,90.67
2022-12-06T07:49:29.246Z,91.12
2022-12-06T07:51:59.417Z,90.93
2022-12-06T07:54:28.623Z,91.22
2022-12-06T07:56:59.238Z,91.41
2022-12-06T07:59:28.290Z,91.29
2022-12-06T08:01:57.084Z,91.46
2022-12-06T08:04:25.851Z,91.75
2022-12-06T08:06:55.601Z,91.76
2022-12-06T08:09:24.357Z,92.17
2022-12-06T08:11:53.141Z,91.78
2022-12-06T08:14:24.022Z,91.44
2022-12-06T08:16:53.144Z,92.14
2022-12-06T08:19:22.162Z,92.73
2022-12-06T08:21:51.012Z,92.57
2022-12-06T08:24:19.905Z,92.38
2022-12-06T08:26:49.095Z,93.57
2022-12-06T08:29:18.014Z,94.27
2022-12-06T08:31:48.693Z,95.32
2022-12-06T08:34:18.055Z,95.77
2022-12-06T08:36:46.836Z,95.01
2022-12-06T08:39:15.609Z,94.84
2022-12-06T08:41:57.377Z,94.27
2022-12-06T08:44:28.460Z,92.78
2022-12-06T08:47:01.319Z,91.65
2022-12-06T08:49:31.440Z,88.76
2022-12-06T08:52:01.244Z,87.63
2022-12-06T08:54:30.480Z,86.33
2022-12-06T08:56:59.224Z,85.00
2022-12-06T08:59:28.144Z,84.47
2022-12-06T09:01:58.954Z,83.70
2022-12-06T09:04:28.497Z,82.08
2022-12-06T09:06:57.281Z,81.80
2022-12-06T09:09:26.121Z,81.60
2022-12-06T09:11:54.995Z,80.87
2022-12-06T09:14:24.085Z,79.92
2022-12-06T09:16:53.518Z,78.95
2022-12-06T09:19:24.281Z,77.94
2022-12-06T09:21:53.043Z,77.09
2022-12-06T09:24:22.130Z,75.42
2022-12-06T09:26:51.303Z,75.54
2022-12-06T09:29:20.364Z,73.64
2022-12-06T09:31:49.112Z,73.25
2022-12-06T09:34:17.983Z,72.49
2022-12-06T09:36:55.476Z,71.39
2022-12-06T09:39:31.780Z,71.58
2022-12-06T09:42:43.824Z,69.89
2022-12-06T09:45:32.059Z,71.90
2022-12-06T09:48:48.741Z,71.59
2022-12-06T09:51:33.101Z,72.38
2022-12-06T09:54:22.692Z,72.66
2022-12-06T09:56:58.992Z,72.05
2022-12-06T09:59:42.933Z,69.43
2022-12-06T10:02:49.461Z,70.17
2022-12-06T10:05:39.908Z,69.05
2022-12-06T10:08:24.655Z,68.32
2022-12-06T10:11:09.067Z,67.63
2022-12-06T10:13:58.229Z,66.38
2022-12-06T10:16:54.869Z,66.36
2022-12-06T10:19:40.938Z,64.26
2022-12-06T10:22:20.962Z,64.33
2022-12-06T10:25:04.409Z,64.03
2022-12-06T10:27:40.598Z,64.47
2022-12-06T10:30:14.180Z,64.99
2022-12-06T10:32:55.105Z,63.94
2022-12-06T10:35:41.215Z,63.96
2022-12-06T10:38:28.941Z,64.99
2022-12-06T10:41:10.624Z,66.35
2022-12-06T10:43:51.097Z,65.97
2022-12-06T10:46:41.688Z,65.68
2022-12-06T10:49:24.005Z,65.59
2022-12-06T10:52:02.127Z,64.40
2022-12-06T10:54:39.064Z,62.64
2022-12-06T10:57:18.391Z,62.23
2022-12-06T11:00:00.320Z,62.23
2022-12-06T11:02:40.640Z,62.74
2022-12-06T11:05:20.049Z,63.67
2022-12-06T11:07:53.888Z,64.05
2022-12-06T11:10:28.001Z,65.17
2022-12-06T11:13:02.986Z,65.35
2022-12-06T11:15:37.607Z,65.97
2022-12-06T11:18:12.774Z,66.87
2022-12-06T11:20:46.135Z,66.55
2022-12-06T11:23:26.771Z,67.20
2022-12-06T11:26:14.462Z,67.24
2022-12-06T11:28:48.842Z,67.56
2022-12-06T11:31:26.983Z,66.19
2022-12-06T11:33:56.371Z,66.43
2022-12-06T11:36:29.978Z,65.13
2022-12-06T11:38:59.591Z,64.86
2022-12-06T11:41:32.333Z,64.77
2022-12-06T11:44:01.342Z,63.15
2022-12-06T11:46:32.052Z,62.63
2022-12-06T11:49:13.878Z,61.79
2022-12-06T11:51:45.419Z,61.95
2022-12-06T11:54:28.680Z,63.24
2022-12-06T11:57:02.792Z,63.83
2022-12-06T11:59:33.150Z,63.96
2022-12-06T12:02:05.620Z,64.89
2022-12-06T12:04:39.318Z,65.08
2022-12-06T12:07:16.671Z,64.59
2022-12-06T12:09:55.111Z,65.62
2022-12-06T12:12:47.292Z,66.02
2022-12-06T12:15:17.550Z,66.42
2022-12-06T12:17:53.442Z,66.83
2022-12-06T12:20:27.525Z,67.42
2022-12-06T12:23:05.752Z,66.95
2022-12-06T12:25:36.460Z,67.60
2022-12-06T12:28:23.477Z,67.30
2022-12-06T12:30:55.349Z,67.68
2022-12-06T12:33:26.394Z,67.66
2022-12-06T12:36:09.935Z,68.13
2022-12-06T12:38:43.499Z,67.74
2022-12-06T12:41:30.815Z,68.68
2022-12-06T12:46:57.324Z,68.64
2022-12-06T12:49:35.107Z,68.99
2022-12-06T12:52:25.995Z,68.20
2022-12-06T12:55:02.420Z,68.79
2022-12-06T12:57:31.571Z,69.50
2022-12-06T13:00:00.353Z,69.00
2022-12-06T13:02:32.339Z,69.38
2022-12-06T13:05:32.084Z,69.77
2022-12-06T13:08:05.830Z,69.97
2022-12-06T13:10:38.262Z,70.10
2022-12-06T13:13:19.878Z,69.90
2022-12-06T13:15:52.270Z,70.14
2022-12-06T13:18:24.636Z,69.93
2022-12-06T13:20:58.159Z,69.91
2022-12-06T13:23:31.788Z,70.10
2022-12-06T13:26:17.250Z,69.55
2022-12-06T13:28:52.141Z,70.93
2022-12-06T13:31:25.376Z,70.93
2022-12-06T13:34:00.032Z,70.88
2022-12-06T13:36:34.940Z,71.47
2022-12-06T13:39:36.911Z,71.66
2022-12-06T13:42:19.680Z,71.77
2022-12-06T13:44:58.780Z,71.81
2022-12-06T13:47:51.372Z,71.92
2022-12-06T13:50:53.195Z,72.49
2022-12-06T13:53:25.850Z,72.55
2022-12-06T13:56:00.888Z,73.63
2022-12-06T13:58:54.115Z,73.37
2022-12-06T14:01:43.323Z,73.58
2022-12-06T14:09:44.595Z,74.16
2022-12-06T14:12:21.213Z,73.99
2022-12-06T14:15:00.755Z,75.10
2022-12-06T14:20:33.272Z,74.96
2022-12-06T14:23:01.959Z,74.45
2022-12-06T14:25:32.648Z,74.84
2022-12-06T14:28:08.564Z,76.33
2022-12-06T14:30:44.166Z,75.99
2022-12-06T14:33:30.621Z,76.68
2022-12-06T14:36:01.084Z,77.33
2022-12-06T14:38:34.482Z,77.69
2022-12-06T14:41:32.884Z,77.51
2022-12-06T14:44:01.558Z,78.49
2022-12-06T14:46:30.511Z,78.20
2022-12-06T14:49:27.555Z,78.64
2022-12-06T14:52:00.041Z,78.87
2022-12-06T14:54:42.851Z,79.48
2022-12-06T14:57:27.558Z,79.68
2022-12-06T15:00:16.173Z,79.91
2022-12-06T15:03:24.897Z,80.32
2022-12-06T15:06:12.226Z,80.36
2022-12-06T15:08:42.354Z,81.46
2022-12-06T15:11:45.254Z,81.17
2022-12-06T15:14:19.384Z,81.07
2022-12-06T15:16:58.503Z,81.03
2022-12-06T15:19:27.475Z,81.92
2022-12-06T15:21:56.446Z,81.87
2022-12-06T15:24:27.472Z,82.08
2022-12-06T15:26:56.785Z,82.54
2022-12-06T15:29:27.390Z,82.01
2022-12-06T15:31:57.392Z,82.28
2022-12-06T15:34:29.411Z,82.78
2022-12-06T15:37:36.489Z,82.84
2022-12-06T15:39:49.057Z,83.49
2022-12-06T15:42:21.185Z,82.85
2022-12-06T15:44:52.771Z,83.11
2022-12-06T15:47:21.544Z,83.80
2022-12-06T15:49:52.586Z,83.38
2022-12-06T15:52:24.400Z,83.48
2022-12-06T15:54:53.449Z,83.97
2022-12-06T15:57:22.213Z,84.06
2022-12-06T15:59:52.816Z,84.02
2022-12-06T16:02:21.608Z,83.94
2022-12-06T16:04:51.294Z,84.15
2022-12-06T16:07:19.969Z,84.70
2022-12-06T16:09:49.307Z,84.50
2022-12-06T16:12:18.650Z,84.99
2022-12-06T16:14:47.591Z,85.18
2022-12-06T16:17:18.657Z,85.02
2022-12-06T16:20:00.423Z,85.66
2022-12-06T16:22:42.032Z,85.62
2022-12-06T16:25:11.371Z,85.20
2022-12-06T16:27:40.011Z,86.00
2022-12-06T16:30:11.365Z,85.96
2022-12-06T16:32:41.964Z,85.47
2022-12-06T16:35:10.591Z,85.65
2022-12-06T16:37:39.862Z,86.13
2022-12-06T16:40:20.130Z,86.05
2022-12-06T16:42:48.947Z,86.46
2022-12-06T16:45:18.415Z,86.10
2022-12-06T16:47:49.113Z,86.31
2022-12-06T16:50:26.143Z,85.98
2022-12-06T16:52:55.527Z,86.20
2022-12-06T16:55:24.228Z,86.52
2022-12-06T16:57:52.846Z,86.74
2022-12-06T17:00:22.564Z,86.82
2022-12-06T17:02:53.339Z,86.95
2022-12-06T17:05:25.856Z,87.63
2022-12-06T17:07:54.986Z,87.23
2022-12-06T17:10:24.025Z,87.95
2022-12-06T17:12:52.794Z,87.84
2022-12-06T17:15:23.301Z,87.51
2022-12-06T17:17:54.064Z,87.84
2022-12-06T17:20:22.793Z,87.71
2022-12-06T17:22:51.677Z,88.32
2022-12-06T17:25:20.857Z,88.45
2022-12-06T17:27:50.943Z,88.26
2022-12-06T17:30:22.713Z,88.07
2022-12-06T17:32:54.829Z,88.58
2022-12-06T17:35:31.508Z,88.86
2022-12-06T17:38:03.672Z,88.34
2022-12-06T17:40:50.759Z,88.35
2022-12-06T17:43:20.295Z,88.30
2022-12-06T17:45:49.319Z,88.34
2022-12-06T17:48:22.884Z,88.11
2022-12-06T17:50:51.579Z,87.76
2022-12-06T17:53:20.478Z,87.48
2022-12-06T17:55:49.493Z,87.48
2022-12-06T17:58:18.582Z,87.70
2022-12-06T18:01:13.666Z,86.72
2022-12-06T18:06:30.519Z,86.89
2022-12-06T18:09:00.724Z,87.01
2022-12-06T18:11:31.038Z,87.37
